createdAt,value
2019-02-23T00:20:08.268Z,-0.39
2019-02-23T00:22:47.896Z,-0.47
2019-02-23T00:25:25.912Z,-0.47
2019-02-23T02:43:13.157Z,-2.07
2019-02-23T02:46:02.427Z,-2.08
2019-02-23T02:49:09.518Z,-1.99
2019-02-23T02:51:58.843Z,-2.07
2019-02-23T02:55:05.983Z,-2.14
2019-02-23T02:58:14.428Z,-2.23
2019-02-23T03:01:21.533Z,-2.33
2019-02-23T03:04:29.968Z,-2.47
2019-02-23T03:10:16.048Z,-2.74
2019-02-23T03:12:44.581Z,-2.84
2019-02-23T03:15:13.218Z,-2.91
2019-02-23T03:17:41.775Z,-3.00
2019-02-23T03:20:10.427Z,-3.13
2019-02-23T03:22:38.985Z,-3.19
2019-02-23T03:25:29.050Z,-3.35
2019-02-23T03:27:57.543Z,-3.35
2019-02-23T03:30:26.179Z,-3.35
2019-02-23T03:32:54.717Z,-3.48
2019-02-23T03:35:23.276Z,-3.48
2019-02-23T03:37:51.870Z,-3.51
2019-02-23T03:40:20.543Z,-3.63
2019-02-23T05:17:47.724Z,-4.32
2019-02-23T06:16:51.017Z,-3.90
2019-02-23T06:23:09.832Z,-3.63
2019-02-23T06:29:45.505Z,-3.53
2019-02-23T07:45:58.920Z,-2.99
2019-02-23T07:52:26.617Z,-2.92
2019-02-23T07:59:04.116Z,-3.04
2019-02-23T08:02:15.222Z,-2.87
2019-02-23T09:55:59.782Z,0.26
2019-02-23T09:58:49.209Z,0.25
2019-02-23T10:05:30.166Z,-0.21
2019-02-23T10:08:19.568Z,-0.41
2019-02-23T10:11:32.679Z,0.02
2019-02-23T10:14:20.930Z,0.48
2019-02-23T10:17:25.539Z,1.02
2019-02-23T10:20:13.750Z,1.21
2019-02-23T10:23:22.089Z,1.56
2019-02-23T10:26:20.731Z,1.48
2019-02-23T10:29:26.980Z,1.24
2019-02-23T10:32:14.865Z,1.48
2019-02-23T10:35:19.372Z,1.29
2019-02-23T10:38:07.230Z,1.23
2019-02-23T10:41:12.009Z,1.64
2019-02-23T10:44:00.115Z,1.77
2019-02-23T10:47:04.729Z,1.39
2019-02-23T10:49:52.731Z,1.99
2019-02-23T10:52:57.199Z,2.37
2019-02-23T10:55:45.151Z,2.08
2019-02-23T10:58:50.048Z,2.20
2019-02-23T11:01:38.123Z,2.74
2019-02-23T11:04:47.692Z,3.04
2019-02-23T11:07:41.359Z,2.41
2019-02-23T11:10:46.015Z,3.02
2019-02-23T11:13:35.375Z,2.45
2019-02-23T11:16:40.069Z,3.28
2019-02-23T11:19:28.318Z,3.55
2019-02-23T11:22:33.281Z,3.58
2019-02-23T11:25:21.020Z,3.28
2019-02-23T11:28:25.511Z,2.97
2019-02-23T11:31:13.330Z,2.95
2019-02-23T11:34:18.575Z,3.40
2019-02-23T11:36:47.219Z,3.10
2019-02-23T11:39:16.059Z,3.24
2019-02-23T11:41:44.697Z,3.88
2019-02-23T11:44:13.311Z,4.01
2019-02-23T11:46:59.897Z,3.03
2019-02-23T11:49:16.538Z,2.66
2019-02-23T11:51:45.256Z,2.44
2019-02-23T11:54:13.867Z,2.77
2019-02-23T11:56:42.358Z,2.72
2019-02-23T11:59:10.999Z,3.43
2019-02-23T12:01:39.911Z,2.91
2019-02-23T12:04:08.470Z,2.88
2019-02-23T12:06:37.066Z,3.88
2019-02-23T12:09:07.182Z,3.29
2019-02-23T12:11:35.793Z,2.77
2019-02-23T12:14:04.413Z,2.95
2019-02-23T12:19:13.046Z,2.57
2019-02-23T12:21:41.645Z,3.15
2019-02-23T12:24:10.954Z,3.64
2019-02-23T12:26:43.446Z,3.32
2019-02-23T12:29:12.078Z,2.85
2019-02-23T12:31:40.754Z,3.09
2019-02-23T12:34:09.399Z,2.52
2019-02-23T12:36:38.071Z,1.92
2019-02-23T12:39:06.819Z,2.47
2019-02-23T12:41:35.422Z,2.45
2019-02-23T12:44:08.995Z,2.79
2019-02-23T12:46:37.691Z,2.97
2019-02-23T12:49:06.436Z,2.95
2019-02-23T12:51:38.910Z,3.17
2019-02-23T12:54:16.434Z,3.21
2019-02-23T12:56:38.115Z,2.93
2019-02-23T12:59:06.828Z,2.68
2019-02-23T13:01:35.376Z,2.51
2019-02-23T13:04:05.544Z,2.43
2019-02-23T13:06:42.494Z,2.22
2019-02-23T13:09:20.752Z,2.39
2019-02-23T13:11:53.761Z,2.17
2019-02-23T13:14:45.011Z,1.98
2019-02-23T13:17:19.837Z,1.87
2019-02-23T13:20:00.355Z,2.11
2019-02-23T13:22:44.653Z,2.63
2019-02-23T13:25:34.626Z,2.92
2019-02-23T13:28:18.360Z,2.95
2019-02-23T13:31:11.014Z,3.45
2019-02-23T13:34:06.628Z,3.62
2019-02-23T13:36:53.194Z,3.02
2019-02-23T13:39:42.693Z,3.18
2019-02-23T13:42:30.455Z,2.00
2019-02-23T13:45:10.614Z,2.03
2019-02-23T13:48:03.218Z,2.06
2019-02-23T13:50:34.816Z,2.40
2019-02-23T13:53:06.381Z,2.46
2019-02-23T13:55:44.092Z,1.84
2019-02-23T13:58:24.061Z,1.99
2019-02-23T14:00:58.312Z,2.09
2019-02-23T14:03:50.998Z,1.68
2019-02-23T14:06:34.168Z,1.74
2019-02-23T14:09:29.829Z,1.66
2019-02-23T14:12:31.761Z,2.15
2019-02-23T14:15:21.322Z,1.76
2019-02-23T14:17:58.403Z,2.25
2019-02-23T14:20:52.335Z,2.04
2019-02-23T14:23:35.786Z,2.10
2019-02-23T14:26:31.506Z,2.18
2019-02-23T14:29:20.953Z,2.10
2019-02-23T14:31:58.569Z,1.94
2019-02-23T14:34:32.945Z,1.57
2019-02-23T14:37:28.423Z,2.08
2019-02-23T14:40:28.824Z,1.84
2019-02-23T14:43:12.052Z,2.34
2019-02-23T14:45:48.114Z,2.22
2019-02-23T14:48:34.714Z,1.49
2019-02-23T14:51:21.574Z,1.63
2019-02-23T14:54:11.296Z,2.01
2019-02-23T14:57:03.873Z,1.69
2019-02-23T14:59:50.519Z,1.52
2019-02-23T15:02:24.911Z,1.56
2019-02-23T15:05:19.564Z,0.83
2019-02-23T15:08:18.126Z,0.38
2019-02-23T15:11:12.282Z,-0.06
2019-02-23T15:14:01.715Z,-0.11
2019-02-23T15:20:40.520Z,-0.58
2019-02-23T15:48:12.967Z,-1.86
2019-02-23T15:51:06.014Z,-2.06
2019-02-23T16:10:58.121Z,-2.66
2019-02-23T16:20:30.578Z,-2.68
2019-02-23T22:09:41.301Z,-4.05
2019-02-23T22:12:30.622Z,-4.00
2019-02-23T22:18:40.633Z,-3.91
2019-02-23T22:21:46.040Z,-3.79
2019-02-23T22:28:05.186Z,-3.79
2019-02-23T22:44:28.814Z,-3.90
2019-02-23T23:26:57.966Z,-5.25
2019-02-23T23:58:22.174Z,-5.94
